Terminal Aerodrome Forecast
Issued by NWS Sterling, VA

Current Version | Previous Version | Text Only | Print | Product List | Glossary Off
Versions: 1 2 3 4 5 6 7 8 9 10 11 12 13 14 15 16 17 18 19 20 21 22 23 24 25

601
FTUS41 KLWX 290831 AAA
TAFDCA
TAF AMD
KDCA 290831Z 2909/3006 19007KT P6SM SCT250
     FM292000 08004KT P6SM BKN070
     FM300000 12005KT P6SM SCT060
     FM300200 09004KT P6SM BKN060
     FM300400 VRB03KT P6SM SCT050=

USA.gov is the U.S. government's official web portal to all federal, state and local government web resources and services.